createdAt,value
2017-11-12T01:10:04.908Z,92.30
2017-11-12T01:12:33.175Z,92.60
2017-11-12T01:15:00.666Z,92.30
2017-11-12T01:17:28.934Z,92.60
2017-11-12T01:19:57.195Z,92.70
2017-11-12T01:22:24.680Z,92.60
2017-11-12T01:24:52.937Z,93.00
2017-11-12T01:27:20.424Z,93.00
2017-11-12T01:29:47.933Z,93.10
2017-11-12T01:32:15.403Z,93.20
2017-11-12T01:34:42.900Z,93.10
2017-11-12T01:37:10.377Z,93.10
2017-11-12T01:39:37.901Z,93.10
2017-11-12T01:42:06.170Z,93.40
2017-11-12T01:44:34.412Z,93.20
2017-11-12T01:47:01.902Z,93.20
2017-11-12T01:49:30.161Z,93.30
2017-11-12T01:51:57.660Z,93.30
2017-11-12T01:54:25.133Z,93.30
2017-11-12T01:56:52.661Z,93.40
2017-11-12T01:59:20.906Z,93.30
2017-11-12T02:01:48.386Z,93.30
2017-11-12T02:04:16.652Z,93.30
2017-11-12T02:06:44.889Z,93.30
2017-11-12T02:09:12.395Z,93.30
2017-11-12T02:11:39.880Z,93.20
2017-11-12T02:14:07.380Z,93.60
2017-11-12T02:16:34.868Z,93.10
2017-11-12T02:19:02.374Z,93.20
2017-11-12T02:21:29.853Z,93.20
2017-11-12T02:23:57.335Z,93.10
2017-11-12T02:26:24.921Z,93.20
2017-11-12T02:28:53.161Z,93.20
2017-11-12T02:31:20.648Z,93.10
2017-11-12T02:33:48.889Z,93.30
2017-11-12T02:36:16.377Z,93.30
2017-11-12T02:38:43.849Z,93.10
2017-11-12T02:41:12.108Z,93.20
2017-11-12T02:43:39.578Z,93.20
2017-11-12T02:46:07.817Z,93.20
2017-11-12T02:48:35.307Z,93.20
2017-11-12T02:51:03.545Z,93.30
2017-11-12T02:53:31.036Z,93.30
2017-11-12T02:55:58.509Z,93.30
2017-11-12T02:58:26.773Z,93.30
2017-11-12T03:00:55.018Z,93.20
2017-11-12T03:03:22.514Z,93.20
2017-11-12T03:05:50.763Z,93.30
2017-11-12T03:08:18.238Z,93.20
2017-11-12T03:10:46.536Z,93.40
2017-11-12T03:13:14.033Z,93.40
2017-11-12T03:15:41.524Z,93.30
2017-11-12T03:18:08.997Z,93.40
2017-11-12T03:20:37.264Z,93.40
2017-11-12T03:23:05.527Z,93.30
2017-11-12T03:25:33.009Z,93.30
2017-11-12T03:28:01.275Z,93.40
2017-11-12T03:30:28.743Z,93.40
2017-11-12T03:32:57.013Z,93.40
2017-11-12T03:35:25.282Z,93.30
2017-11-12T03:37:52.761Z,93.30
2017-11-12T03:40:21.003Z,93.30
2017-11-12T03:42:48.504Z,93.30
2017-11-12T03:45:16.745Z,93.30
2017-11-12T03:47:44.227Z,93.30
2017-11-12T03:50:12.494Z,93.20
2017-11-12T03:52:40.780Z,93.50
2017-11-12T03:55:09.056Z,93.10
2017-11-12T03:57:37.309Z,93.20
2017-11-12T04:00:04.800Z,93.20
2017-11-12T04:02:33.062Z,92.90
2017-11-12T04:05:01.320Z,93.00
2017-11-12T04:07:28.797Z,93.00
2017-11-12T04:09:57.113Z,92.90
2017-11-12T04:12:24.611Z,92.90
2017-11-12T04:14:52.097Z,92.90
2017-11-12T04:17:20.352Z,93.00
2017-11-12T04:19:47.828Z,93.00
2017-11-12T04:22:16.090Z,93.40
2017-11-12T04:24:43.564Z,93.10
2017-11-12T04:27:11.825Z,93.30
2017-11-12T04:29:39.304Z,93.00
2017-11-12T04:32:07.561Z,92.90
2017-11-12T04:34:35.049Z,92.80
2017-11-12T04:37:02.526Z,92.70
2017-11-12T04:39:30.022Z,92.80
2017-11-12T04:41:57.500Z,92.90
2017-11-12T04:44:24.996Z,92.80
2017-11-12T04:46:52.531Z,92.70
2017-11-12T04:49:20.806Z,92.80
2017-11-12T04:51:49.050Z,92.80
2017-11-12T04:54:16.536Z,92.80
2017-11-12T04:56:44.792Z,92.80
2017-11-12T04:59:12.273Z,92.80
2017-11-12T05:01:40.528Z,92.80
2017-11-12T05:04:08.005Z,92.80
2017-11-12T05:06:37.284Z,92.70
2017-11-12T05:09:04.765Z,92.70
2017-11-12T05:11:33.000Z,92.80
2017-11-12T05:14:00.492Z,92.80
2017-11-12T05:16:28.736Z,92.80
2017-11-12T05:18:56.233Z,92.80
2017-11-12T05:21:24.493Z,92.80
2017-11-12T05:23:51.980Z,93.10
2017-11-12T05:26:19.460Z,92.90
2017-11-12T05:28:46.952Z,92.80
2017-11-12T05:31:14.439Z,92.70
2017-11-12T05:33:42.725Z,92.60
2017-11-12T05:36:10.988Z,92.70
2017-11-12T05:38:38.462Z,92.60
2017-11-12T05:41:06.717Z,92.80
2017-11-12T05:43:34.188Z,92.80
2017-11-12T05:46:02.442Z,92.80
2017-11-12T05:48:29.921Z,92.80
2017-11-12T05:50:58.201Z,92.60
2017-11-12T05:53:26.444Z,92.70
2017-11-12T05:55:53.924Z,92.70
2017-11-12T05:58:21.415Z,92.50
2017-11-12T06:00:48.892Z,92.50
2017-11-12T06:03:16.377Z,92.70
2017-11-12T06:05:43.856Z,92.70
2017-11-12T06:08:11.345Z,92.70
2017-11-12T06:10:38.824Z,92.70
2017-11-12T06:13:06.320Z,92.70
2017-11-12T06:15:33.830Z,92.80
2017-11-12T06:18:01.306Z,92.60
2017-11-12T06:20:28.796Z,92.70
2017-11-12T06:22:56.333Z,92.50
2017-11-12T06:25:23.831Z,92.50
2017-11-12T06:27:52.076Z,92.60
2017-11-12T06:30:19.604Z,92.60
2017-11-12T06:32:47.076Z,92.70
2017-11-12T06:35:14.557Z,92.70
2017-11-12T06:37:42.144Z,93.00
2017-11-12T06:40:10.388Z,93.10
2017-11-12T06:42:37.880Z,93.10
2017-11-12T06:45:06.121Z,93.10
2017-11-12T06:47:33.621Z,93.10
2017-11-12T06:50:01.871Z,92.90
2017-11-12T06:52:29.348Z,92.90
2017-11-12T06:54:57.616Z,92.70
2017-11-12T06:57:25.090Z,92.70
2017-11-12T06:59:53.357Z,92.50
2017-11-12T07:02:21.607Z,92.50
2017-11-12T07:04:49.101Z,92.50
2017-11-12T07:07:17.342Z,92.80
2017-11-12T07:09:44.845Z,92.80
2017-11-12T07:12:13.085Z,93.20
2017-11-12T07:14:40.569Z,93.10
2017-11-12T07:17:08.827Z,93.30
2017-11-12T07:19:36.302Z,93.30
2017-11-12T07:22:04.566Z,93.30
2017-11-12T07:24:32.861Z,93.50
2017-11-12T07:27:01.120Z,93.50
2017-11-12T07:29:28.601Z,93.50
2017-11-12T07:31:56.104Z,93.60
2017-11-12T07:34:23.585Z,93.60
2017-11-12T07:36:51.064Z,93.50
2017-11-12T07:39:19.316Z,93.60
2017-11-12T07:41:46.791Z,93.60
2017-11-12T07:44:15.056Z,93.70
2017-11-12T07:46:42.533Z,93.60
2017-11-12T07:49:10.790Z,93.60
2017-11-12T07:51:38.266Z,93.50
2017-11-12T07:54:06.545Z,93.50
2017-11-12T07:56:34.796Z,93.40
2017-11-12T07:59:02.283Z,93.40
2017-11-12T08:01:30.544Z,93.40
2017-11-12T08:03:58.011Z,93.40
2017-11-12T08:06:26.269Z,93.30
2017-11-12T08:08:53.748Z,93.30
2017-11-12T08:11:22.013Z,93.30
2017-11-12T08:13:49.493Z,93.30
2017-11-12T08:16:17.756Z,93.30
2017-11-12T08:18:46.004Z,93.20
2017-11-12T08:21:13.480Z,93.20
2017-11-12T08:23:42.491Z,93.30
2017-11-12T08:26:10.745Z,93.30
2017-11-12T08:28:38.246Z,93.30
2017-11-12T08:31:05.729Z,93.30
2017-11-12T08:33:33.221Z,93.20
2017-11-12T08:36:00.701Z,93.10
2017-11-12T08:38:28.965Z,93.00
2017-11-12T08:40:57.216Z,93.00
2017-11-12T08:43:24.705Z,93.00
2017-11-12T08:45:52.965Z,93.00
2017-11-12T08:48:20.440Z,93.00
2017-11-12T08:50:48.720Z,93.20
2017-11-12T08:53:16.958Z,93.10
2017-11-12T08:55:44.458Z,93.10
2017-11-12T08:58:12.696Z,93.70
2017-11-12T09:00:40.232Z,93.70
2017-11-12T09:03:07.713Z,92.90
2017-11-12T09:05:35.192Z,93.00
2017-11-12T09:08:02.685Z,93.30
2017-11-12T09:10:30.165Z,92.90
2017-11-12T09:12:57.661Z,93.30
2017-11-12T09:15:25.143Z,93.50
2017-11-12T09:17:53.419Z,94.60
2017-11-12T09:20:20.901Z,94.60
2017-11-12T09:22:48.398Z,94.20
2017-11-12T09:25:15.880Z,94.70
2017-11-12T09:27:43.369Z,94.50
2017-11-12T09:30:10.874Z,94.60
2017-11-12T09:32:38.352Z,94.70
2017-11-12T09:35:05.836Z,93.20
2017-11-12T09:37:34.079Z,93.00
2017-11-12T09:40:01.564Z,93.20
2017-11-12T09:42:29.797Z,92.30
2017-11-12T09:44:57.293Z,92.30
2017-11-12T09:47:25.525Z,93.30
2017-11-12T09:49:53.013Z,93.30
2017-11-12T09:52:20.501Z,92.50
2017-11-12T09:54:47.975Z,92.90
2017-11-12T09:57:15.461Z,93.40
2017-11-12T09:59:42.939Z,92.60
2017-11-12T10:02:10.450Z,92.50
2017-11-12T10:04:37.920Z,92.60
2017-11-12T10:07:05.431Z,92.70
2017-11-12T10:09:33.816Z,92.30
2017-11-12T10:12:02.054Z,93.00
2017-11-12T10:14:29.593Z,93.00
2017-11-12T10:16:57.064Z,93.10
2017-11-12T10:19:24.544Z,92.20
2017-11-12T10:21:52.028Z,92.00
2017-11-12T10:24:20.273Z,91.80
2017-11-12T10:26:47.748Z,91.80
2017-11-12T10:29:16.033Z,92.80
2017-11-12T10:31:44.281Z,92.20
2017-11-12T10:34:11.776Z,92.20
2017-11-12T10:36:40.079Z,92.10
2017-11-12T10:39:07.580Z,92.10
2017-11-12T10:41:35.065Z,92.10
2017-11-12T10:44:03.307Z,92.00
2017-11-12T10:46:30.791Z,92.00
2017-11-12T10:48:59.030Z,91.80
2017-11-12T10:51:26.545Z,91.80
2017-11-12T10:53:54.844Z,92.00
2017-11-12T10:56:22.322Z,92.00
2017-11-12T10:58:49.810Z,91.60
2017-11-12T11:01:17.277Z,91.20
2017-11-12T11:03:45.537Z,92.20
2017-11-12T11:06:13.012Z,92.10
2017-11-12T11:08:41.282Z,91.80
2017-11-12T11:11:08.760Z,91.80
2017-11-12T11:13:36.989Z,92.00
2017-11-12T11:16:04.496Z,92.00
2017-11-12T11:18:31.973Z,92.00
2017-11-12T11:20:59.455Z,92.20
2017-11-12T11:23:26.921Z,92.00
2017-11-12T11:25:54.511Z,92.00
2017-11-12T11:28:22.769Z,92.90
2017-11-12T11:30:50.244Z,92.80
2017-11-12T11:33:19.321Z,92.90
2017-11-12T11:35:46.812Z,92.90
2017-11-12T11:38:15.065Z,93.40
2017-11-12T11:40:42.537Z,93.40
2017-11-12T11:43:10.792Z,92.70
2017-11-12T11:45:38.278Z,92.70
2017-11-12T11:48:06.544Z,93.00
2017-11-12T11:50:34.020Z,92.90
2017-11-12T11:53:02.271Z,93.40
2017-11-12T11:55:29.781Z,93.40
2017-11-12T20:50:25.526Z,92.00
2017-11-12T20:52:53.784Z,92.00
2017-11-12T20:55:21.264Z,92.00
2017-11-12T20:57:49.504Z,92.50
2017-11-12T21:00:16.997Z,92.50
2017-11-12T21:02:45.324Z,92.90
2017-11-12T21:05:14.453Z,93.10
2017-11-12T21:07:41.945Z,93.00
2017-11-12T21:10:10.224Z,93.00
2017-11-12T21:12:38.464Z,93.20
2017-11-12T21:15:05.948Z,93.20
2017-11-12T21:17:34.220Z,93.40
2017-11-12T21:20:02.972Z,93.20
2017-11-12T21:22:30.468Z,93.20
2017-11-12T21:24:58.709Z,93.20
2017-11-12T21:27:31.242Z,93.20
2017-11-12T21:30:04.383Z,93.30
2017-11-12T21:32:32.835Z,93.20
2017-11-12T21:35:02.804Z,93.00
2017-11-12T21:37:31.077Z,93.30
2017-11-12T21:39:58.540Z,93.30
2017-11-12T21:42:26.781Z,93.30
2017-11-12T21:44:54.288Z,93.20
2017-11-12T21:47:22.525Z,93.20
2017-11-12T21:49:50.011Z,93.20
2017-11-12T21:52:18.258Z,93.20
2017-11-12T21:54:45.748Z,93.20
2017-11-12T21:57:14.011Z,93.30
2017-11-12T21:59:41.489Z,93.30
2017-11-12T22:02:09.727Z,93.40
2017-11-12T22:04:37.208Z,93.40
2017-11-12T22:07:04.704Z,93.50
2017-11-12T22:09:32.271Z,93.80
2017-11-12T22:11:59.751Z,93.40
2017-11-12T22:14:27.256Z,93.60
2017-11-12T22:16:55.542Z,93.80
2017-11-12T22:19:23.780Z,93.90
2017-11-12T22:21:51.254Z,93.90
2017-11-12T22:24:19.508Z,94.10
2017-11-12T22:26:46.996Z,94.00
2017-11-12T22:29:15.245Z,94.20
2017-11-12T22:31:42.770Z,94.20
2017-11-12T22:34:10.300Z,94.30
2017-11-12T22:36:38.540Z,94.40
2017-11-12T22:39:06.031Z,94.40
2017-11-12T22:41:34.285Z,94.40
2017-11-12T22:44:01.772Z,94.40
2017-11-12T22:46:30.029Z,94.10
2017-11-12T22:48:57.502Z,94.10
2017-11-12T22:51:25.003Z,94.20
2017-11-12T22:53:52.473Z,94.10
2017-11-12T22:56:19.952Z,94.00
2017-11-12T22:58:47.429Z,93.90
2017-11-12T23:01:15.669Z,94.00
2017-11-12T23:03:43.152Z,94.00
2017-11-12T23:06:11.396Z,94.10
2017-11-12T23:08:38.890Z,94.10
2017-11-12T23:11:07.137Z,94.00
2017-11-12T23:13:34.613Z,94.00
2017-11-12T23:16:02.097Z,94.00
2017-11-12T23:18:30.364Z,94.00
2017-11-12T23:20:58.657Z,94.00
2017-11-12T23:23:26.898Z,93.80
2017-11-12T23:25:54.424Z,93.80
2017-11-12T23:28:21.937Z,93.90
2017-11-12T23:30:50.191Z,93.90
2017-11-12T23:33:17.666Z,93.90
2017-11-12T23:35:45.965Z,94.10
2017-11-12T23:38:13.466Z,94.10
2017-11-12T23:40:40.945Z,93.80
2017-11-12T23:43:08.475Z,93.80
2017-11-12T23:45:35.945Z,93.80
2017-11-12T23:48:03.431Z,93.70
2017-11-12T23:50:31.674Z,93.80
2017-11-12T23:52:59.172Z,93.80
2017-11-12T23:55:27.410Z,94.10
2017-11-12T23:57:54.902Z,93.90
